createdAt,value
2019-02-06T00:01:54.668Z,65.25
2019-02-06T00:04:24.251Z,71.62
2019-02-06T00:06:53.223Z,70.70
2019-02-06T00:09:22.454Z,69.05
2019-02-06T00:11:51.472Z,46.68
2019-02-06T00:14:20.518Z,51.98
2019-02-06T00:16:49.271Z,49.80
2019-02-06T00:19:18.638Z,49.40
2019-02-06T00:21:47.867Z,49.93
2019-02-06T00:24:16.886Z,50.05
2019-02-06T00:26:46.292Z,54.05
2019-02-06T00:29:17.147Z,62.10
2019-02-06T00:31:46.039Z,56.13
2019-02-06T00:34:15.399Z,69.97
2019-02-06T00:36:44.428Z,62.15
2019-02-06T00:39:13.547Z,51.40
2019-02-06T00:41:42.472Z,57.65
2019-02-06T00:44:11.363Z,52.48
2019-02-06T00:46:40.374Z,50.63
2019-02-06T00:49:10.850Z,58.70
2019-02-06T00:51:39.891Z,62.58
2019-02-06T00:54:08.919Z,45.43
2019-02-06T00:56:38.168Z,54.80
2019-02-06T00:59:07.191Z,61.45
2019-02-06T01:01:35.987Z,61.63
2019-02-06T01:04:05.481Z,47.50
2019-02-06T01:06:34.565Z,58.63
2019-02-06T01:09:04.960Z,55.35
2019-02-06T01:11:33.764Z,53.58
2019-02-06T01:14:02.577Z,52.78
2019-02-06T01:16:32.108Z,59.55
2019-02-06T01:19:00.986Z,68.25
2019-02-06T01:21:29.784Z,71.45
2019-02-06T01:23:58.733Z,58.15
2019-02-06T01:26:27.704Z,61.58
2019-02-06T01:28:56.927Z,65.62
2019-02-06T01:31:27.413Z,57.75
2019-02-06T01:33:56.310Z,67.00
2019-02-06T01:36:25.837Z,59.50
2019-02-06T01:38:54.642Z,65.28
2019-02-06T01:41:23.666Z,71.80
2019-02-06T01:43:52.470Z,58.78
2019-02-06T01:46:21.435Z,62.90
2019-02-06T01:48:50.635Z,43.85
2019-02-06T01:51:19.619Z,67.87
2019-02-06T01:53:48.449Z,56.45
2019-02-06T01:56:17.310Z,54.83
2019-02-06T01:58:46.110Z,64.42
2019-02-06T02:01:14.874Z,54.05
2019-02-06T02:03:44.314Z,56.08
2019-02-06T02:06:13.176Z,63.08
2019-02-06T02:08:48.537Z,71.82
2019-02-06T02:11:17.980Z,44.18
2019-02-06T02:13:46.950Z,72.20
2019-02-06T02:16:16.307Z,54.73
2019-02-06T02:18:45.341Z,68.52
2019-02-06T02:21:14.272Z,61.63
2019-02-06T02:23:43.437Z,52.95
2019-02-06T02:26:12.371Z,65.40
2019-02-06T02:28:41.299Z,65.32
2019-02-06T02:31:10.438Z,65.22
2019-02-06T02:33:39.304Z,57.55
2019-02-06T02:36:16.143Z,61.13
2019-02-06T02:38:38.808Z,75.22
2019-02-06T02:41:08.108Z,51.73
2019-02-06T02:43:37.038Z,59.85
2019-02-06T02:46:06.303Z,82.60
2019-02-06T02:48:35.228Z,62.98
2019-02-06T02:51:04.445Z,70.50
2019-02-06T02:53:33.753Z,53.95
2019-02-06T02:56:02.566Z,66.10
2019-02-06T02:58:31.762Z,57.65
2019-02-06T03:01:19.088Z,60.60
2019-02-06T03:04:22.518Z,65.25
2019-02-06T03:06:51.347Z,56.98
2019-02-06T03:09:21.234Z,50.28
2019-02-06T03:11:50.175Z,57.98
2019-02-06T03:14:19.091Z,55.45
2019-02-06T03:16:48.015Z,54.77
2019-02-06T03:19:18.189Z,44.93
2019-02-06T03:21:47.171Z,51.48
2019-02-06T03:24:16.050Z,54.48
2019-02-06T03:26:45.186Z,63.75
2019-02-06T03:29:14.459Z,61.77
2019-02-06T03:31:43.498Z,64.20
2019-02-06T03:34:12.569Z,57.65
2019-02-06T03:36:41.642Z,60.70
2019-02-06T03:39:10.482Z,64.92
2019-02-06T03:41:39.722Z,55.60
2019-02-06T03:44:08.948Z,58.08
2019-02-06T03:46:37.898Z,50.65
2019-02-06T03:49:07.283Z,61.70
2019-02-06T03:51:36.363Z,65.87
2019-02-06T03:54:05.875Z,52.65
2019-02-06T03:56:35.036Z,66.37
2019-02-06T03:59:05.716Z,60.33
2019-02-06T04:01:34.596Z,50.35
2019-02-06T04:04:03.577Z,58.28
2019-02-06T04:06:32.612Z,48.20
2019-02-06T04:09:01.776Z,52.00
2019-02-06T04:11:30.683Z,56.58
2019-02-06T04:13:59.529Z,69.17
2019-02-06T04:16:28.353Z,64.42
2019-02-06T04:18:57.180Z,64.17
2019-02-06T04:21:26.452Z,58.33
2019-02-06T04:23:55.317Z,55.78
2019-02-06T04:26:24.225Z,54.08
2019-02-06T04:28:53.375Z,56.30
2019-02-06T04:31:22.787Z,59.38
2019-02-06T04:33:51.996Z,40.23
2019-02-06T04:36:20.874Z,61.92
2019-02-06T04:38:49.775Z,53.20
2019-02-06T04:41:20.829Z,46.45
2019-02-06T04:43:49.726Z,53.90
2019-02-06T04:46:21.064Z,55.35
2019-02-06T04:48:50.048Z,41.48
2019-02-06T04:51:19.163Z,61.70
2019-02-06T04:53:48.059Z,34.03
2019-02-06T04:56:16.838Z,40.63
2019-02-06T04:58:45.724Z,30.85
2019-02-06T05:01:15.210Z,53.50
2019-02-06T05:03:44.339Z,34.38
2019-02-06T05:06:13.441Z,30.17
2019-02-06T05:08:42.433Z,25.40
2019-02-06T05:11:11.588Z,33.28
2019-02-06T05:13:40.694Z,30.52
2019-02-06T05:16:09.911Z,29.77
2019-02-06T05:18:39.553Z,32.33
2019-02-06T05:21:08.914Z,32.45
2019-02-06T05:23:37.824Z,28.52
2019-02-06T05:26:06.700Z,27.37
2019-02-06T05:28:35.924Z,29.70
2019-02-06T05:31:04.879Z,34.45
2019-02-06T05:33:34.317Z,25.25
2019-02-06T05:36:03.104Z,31.65
2019-02-06T05:38:32.049Z,24.47
2019-02-06T05:41:01.225Z,30.25
2019-02-06T05:43:30.321Z,21.40
2019-02-06T05:45:59.201Z,23.32
2019-02-06T05:48:29.434Z,28.35
2019-02-06T05:50:58.311Z,25.27
2019-02-06T05:53:27.238Z,27.58
2019-02-06T05:55:56.347Z,26.50
2019-02-06T05:58:25.292Z,29.57
2019-02-06T06:00:54.585Z,26.07
2019-02-06T06:03:23.490Z,27.60
2019-02-06T06:05:52.582Z,29.98
2019-02-06T06:08:21.319Z,33.30
2019-02-06T06:10:50.136Z,26.10
2019-02-06T06:13:20.208Z,35.60
2019-02-06T06:15:49.033Z,35.45
2019-02-06T06:18:18.029Z,32.25
2019-02-06T06:20:47.048Z,28.90
2019-02-06T06:23:16.351Z,30.08
2019-02-06T06:25:45.616Z,28.67
2019-02-06T06:28:15.631Z,37.23
2019-02-06T06:30:47.235Z,26.62
2019-02-06T06:33:15.080Z,32.60
2019-02-06T06:35:44.490Z,32.83
2019-02-06T06:38:13.860Z,44.27
2019-02-06T06:40:42.688Z,27.27
2019-02-06T06:43:15.994Z,35.55
2019-02-06T06:45:43.275Z,42.25
2019-02-06T06:48:12.187Z,41.60
2019-02-06T06:50:41.370Z,42.50
2019-02-06T06:53:10.401Z,37.53
2019-02-06T06:55:39.340Z,28.85
2019-02-06T06:58:08.195Z,42.25
2019-02-06T07:00:37.113Z,39.55
2019-02-06T07:03:06.366Z,34.45
2019-02-06T07:05:35.216Z,52.62
2019-02-06T07:08:09.630Z,43.87
2019-02-06T07:10:35.967Z,47.70
2019-02-06T07:13:04.870Z,40.78
2019-02-06T07:15:35.227Z,51.45
2019-02-06T07:18:04.315Z,31.75
2019-02-06T07:20:33.183Z,39.10
2019-02-06T07:23:02.466Z,40.92
2019-02-06T07:25:31.203Z,43.73
2019-02-06T07:28:00.501Z,42.95
2019-02-06T07:30:31.509Z,54.65
2019-02-06T07:33:00.748Z,55.12
2019-02-06T07:35:29.992Z,41.13
2019-02-06T07:37:59.218Z,39.75
2019-02-06T07:40:28.399Z,36.10
2019-02-06T07:42:57.396Z,42.43
2019-02-06T07:45:26.319Z,35.30
2019-02-06T07:47:55.234Z,36.60
2019-02-06T07:50:26.531Z,40.23
2019-02-06T07:52:56.169Z,44.93
2019-02-06T07:55:25.326Z,43.05
2019-02-06T07:57:54.232Z,39.10
2019-02-06T08:00:23.583Z,44.73
2019-02-06T08:02:53.618Z,35.73
2019-02-06T08:05:22.655Z,48.58
2019-02-06T08:07:52.479Z,41.75
2019-02-06T08:10:23.983Z,41.10
2019-02-06T08:12:52.982Z,44.13
2019-02-06T08:15:22.155Z,51.23
2019-02-06T08:17:51.118Z,37.85
2019-02-06T08:20:20.253Z,33.98
2019-02-06T08:22:49.366Z,42.55
2019-02-06T08:25:18.417Z,39.23
2019-02-06T08:27:47.662Z,41.75
2019-02-06T08:30:37.157Z,40.05
2019-02-06T08:33:06.378Z,39.95
2019-02-06T08:35:36.490Z,37.50
2019-02-06T08:38:05.754Z,34.20
2019-02-06T08:40:34.884Z,34.25
2019-02-06T08:43:04.243Z,41.42
2019-02-06T08:45:33.115Z,38.05
2019-02-06T08:48:01.907Z,31.85
2019-02-06T08:50:31.159Z,36.90
2019-02-06T08:53:00.058Z,47.38
2019-02-06T08:55:30.357Z,42.17
2019-02-06T08:57:59.539Z,53.17
2019-02-06T09:00:30.571Z,49.33
2019-02-06T09:03:00.079Z,55.12
2019-02-06T09:05:29.327Z,42.43
2019-02-06T09:07:58.854Z,45.70
2019-02-06T09:10:28.326Z,53.47
2019-02-06T09:12:57.571Z,51.53
2019-02-06T09:15:27.435Z,50.07
2019-02-06T09:17:56.699Z,48.53
2019-02-06T09:20:26.887Z,45.20
2019-02-06T09:22:56.222Z,61.80
2019-02-06T09:25:25.460Z,51.07
2019-02-06T09:27:54.803Z,48.13
2019-02-06T09:30:28.882Z,48.03
2019-02-06T09:32:58.782Z,60.07
2019-02-06T09:35:27.822Z,48.10
2019-02-06T09:37:57.135Z,51.17
2019-02-06T09:40:28.139Z,50.80
2019-02-06T09:42:57.020Z,46.63
2019-02-06T09:45:26.374Z,54.27
2019-02-06T09:47:55.414Z,53.30
2019-02-06T09:50:27.323Z,51.37
2019-02-06T09:52:56.289Z,45.27
2019-02-06T09:55:25.366Z,56.93
2019-02-06T09:57:55.409Z,62.43
2019-02-06T10:00:26.803Z,42.53
2019-02-06T10:02:56.079Z,74.07
2019-02-06T10:05:27.127Z,45.73
2019-02-06T10:07:57.095Z,44.20
2019-02-06T10:10:26.746Z,46.67
2019-02-06T10:12:56.089Z,48.43
2019-02-06T10:15:33.491Z,41.20
2019-02-06T10:18:03.035Z,36.07
2019-02-06T10:20:34.680Z,32.60
2019-02-06T10:23:05.379Z,40.37
2019-02-06T10:25:34.692Z,32.97
2019-02-06T10:28:03.814Z,31.23
2019-02-06T10:30:41.181Z,30.87
2019-02-06T10:33:10.474Z,31.20
2019-02-06T10:35:39.430Z,30.00
2019-02-06T10:38:08.511Z,30.40
2019-02-06T10:40:37.389Z,28.17
2019-02-06T10:43:06.505Z,30.93
2019-02-06T10:45:36.159Z,29.90
2019-02-06T10:48:05.979Z,31.30
2019-02-06T10:50:37.388Z,32.37
2019-02-06T10:53:06.504Z,30.70
2019-02-06T10:55:35.950Z,33.03
2019-02-06T10:58:05.067Z,37.23
2019-02-06T11:00:37.465Z,30.97
2019-02-06T11:03:06.729Z,36.00
2019-02-06T11:05:35.770Z,32.73
2019-02-06T11:08:05.378Z,31.93
2019-02-06T11:10:34.313Z,32.10
2019-02-06T11:13:03.225Z,31.30
2019-02-06T11:15:33.032Z,30.80
2019-02-06T11:18:01.986Z,32.57
2019-02-06T11:20:31.519Z,32.97
2019-02-06T11:23:00.829Z,31.03
2019-02-06T11:25:29.763Z,32.87
2019-02-06T11:27:58.711Z,33.60
2019-02-06T11:30:28.230Z,35.27
2019-02-06T11:32:57.149Z,32.30
2019-02-06T11:35:25.997Z,31.97
2019-02-06T11:37:55.040Z,30.33
2019-02-06T11:40:24.384Z,33.13
2019-02-06T11:42:53.769Z,35.30
2019-02-06T11:45:26.231Z,30.93
2019-02-06T11:47:55.129Z,31.60
2019-02-06T11:50:32.473Z,33.17
2019-02-06T11:53:01.580Z,31.97
2019-02-06T11:55:30.578Z,32.77
2019-02-06T11:57:59.431Z,35.80
2019-02-06T12:00:43.567Z,31.83
2019-02-06T12:03:13.098Z,32.70
2019-02-06T12:05:42.050Z,34.20
2019-02-06T12:08:12.905Z,32.73
2019-02-06T12:10:42.383Z,31.83
2019-02-06T12:13:11.711Z,34.43
2019-02-06T12:15:40.631Z,31.57
2019-02-06T12:18:09.598Z,36.93
2019-02-06T12:20:38.722Z,37.10
2019-02-06T12:23:08.402Z,37.03
2019-02-06T12:25:37.326Z,32.87
2019-02-06T12:28:06.703Z,32.67
2019-02-06T12:30:35.919Z,31.33
2019-02-06T12:33:05.611Z,34.07
2019-02-06T12:35:35.325Z,31.83
2019-02-06T12:38:04.671Z,31.90
2019-02-06T12:40:34.131Z,33.97
2019-02-06T12:43:03.948Z,33.63
2019-02-06T12:45:33.144Z,33.00
2019-02-06T12:48:02.030Z,32.60
2019-02-06T12:50:30.905Z,34.80
2019-02-06T12:53:00.030Z,31.40
2019-02-06T12:55:31.451Z,30.03
2019-02-06T12:58:00.346Z,32.30
2019-02-06T13:00:31.109Z,33.70
2019-02-06T13:03:00.540Z,34.00
2019-02-06T13:05:30.766Z,31.23
2019-02-06T13:07:59.934Z,32.57
2019-02-06T13:10:33.957Z,37.63
2019-02-06T13:12:59.569Z,37.93
2019-02-06T13:15:28.444Z,32.73
2019-02-06T13:17:57.600Z,34.93
2019-02-06T13:20:28.273Z,37.10
2019-02-06T13:22:57.537Z,40.73
2019-02-06T13:25:26.472Z,51.73
2019-02-06T13:27:55.246Z,38.20
2019-02-06T13:30:33.444Z,33.87
2019-02-06T13:33:02.365Z,35.57
2019-02-06T13:35:31.432Z,39.37
2019-02-06T13:38:00.380Z,38.63
2019-02-06T13:40:29.427Z,34.97
2019-02-06T13:42:58.599Z,34.33
2019-02-06T13:45:30.384Z,34.30
2019-02-06T13:47:59.396Z,36.23
2019-02-06T13:50:29.213Z,37.73
2019-02-06T13:52:58.401Z,41.63
2019-02-06T13:55:27.809Z,37.70
2019-02-06T13:57:56.779Z,41.83
2019-02-06T14:00:28.740Z,37.90
2019-02-06T14:02:57.737Z,38.67
2019-02-06T14:05:28.134Z,42.43
2019-02-06T14:07:59.104Z,36.67
2019-02-06T14:10:28.656Z,42.63
2019-02-06T14:12:57.774Z,37.73
2019-02-06T14:15:29.448Z,38.30
2019-02-06T14:17:58.456Z,36.00
2019-02-06T14:20:27.735Z,60.03
2019-02-06T14:23:06.577Z,53.60
2019-02-06T14:25:42.283Z,48.20
2019-02-06T14:28:44.807Z,41.17
2019-02-06T14:31:31.964Z,38.00
2019-02-06T14:34:06.316Z,37.43
2019-02-06T14:37:19.966Z,32.17
2019-02-06T14:40:19.172Z,44.85
2019-02-06T14:43:28.179Z,37.03
2019-02-06T14:46:37.798Z,38.17
2019-02-06T14:49:35.822Z,34.78
2019-02-06T14:52:54.920Z,36.55
2019-02-06T14:55:46.462Z,34.40
2019-02-06T14:58:39.233Z,34.25
2019-02-06T15:02:13.766Z,31.60
2019-02-06T15:05:06.097Z,35.15
2019-02-06T15:08:19.138Z,29.45
2019-02-06T15:11:19.161Z,33.53
2019-02-06T15:14:32.065Z,35.10
2019-02-06T15:17:52.166Z,25.65
2019-02-06T15:20:51.500Z,33.67
2019-02-06T15:23:50.011Z,30.32
2019-02-06T15:26:35.157Z,40.90
2019-02-06T15:29:39.705Z,29.30
2019-02-06T15:32:26.626Z,26.05
2019-02-06T15:35:48.172Z,33.30
2019-02-06T15:38:50.598Z,22.30
2019-02-06T15:41:59.507Z,26.82
2019-02-06T15:44:38.363Z,27.77
2019-02-06T15:47:33.143Z,29.77
2019-02-06T15:50:29.074Z,25.95
2019-02-06T15:53:37.187Z,26.90
2019-02-06T15:56:58.731Z,25.27
2019-02-06T15:59:59.396Z,38.40
2019-02-06T16:02:56.701Z,29.15
2019-02-06T16:06:20.245Z,27.67
2019-02-06T16:09:19.348Z,33.58
2019-02-06T16:12:18.631Z,26.60
2019-02-06T16:15:20.153Z,24.87
2019-02-06T16:18:26.515Z,24.15
2019-02-06T16:21:34.487Z,19.23
2019-02-06T16:24:32.608Z,24.67
2019-02-06T16:27:52.058Z,29.20
2019-02-06T16:30:33.763Z,19.85
2019-02-06T16:33:40.287Z,26.10
2019-02-06T16:36:41.771Z,23.12
2019-02-06T16:39:42.619Z,19.90
2019-02-06T16:43:05.139Z,28.98
2019-02-06T16:46:19.389Z,21.45
2019-02-06T16:49:25.646Z,19.85
2019-02-06T16:52:18.519Z,29.57
2019-02-06T16:55:32.990Z,16.00
2019-02-06T16:58:36.812Z,29.72
2019-02-06T17:01:37.547Z,23.73
2019-02-06T17:04:18.482Z,23.10
2019-02-06T17:07:42.143Z,26.82
2019-02-06T17:10:35.016Z,22.58
2019-02-06T17:13:44.928Z,27.35
2019-02-06T17:16:47.792Z,28.73
2019-02-06T17:19:43.844Z,17.62
2019-02-06T17:22:30.712Z,19.30
2019-02-06T17:25:18.176Z,21.97
2019-02-06T17:28:38.765Z,25.05
2019-02-06T17:31:44.099Z,19.95
2019-02-06T17:34:27.858Z,24.23
2019-02-06T17:37:25.679Z,27.32
2019-02-06T17:40:30.026Z,23.62
2019-02-06T17:43:23.640Z,23.18
2019-02-06T17:46:42.627Z,28.60
2019-02-06T17:49:39.838Z,20.88
2019-02-06T17:52:45.493Z,20.10
2019-02-06T17:55:19.639Z,20.62
2019-02-06T17:57:50.094Z,21.93
2019-02-06T18:00:48.790Z,21.95
2019-02-06T18:03:18.179Z,24.20
2019-02-06T18:05:47.938Z,30.02
2019-02-06T18:08:16.817Z,26.65
2019-02-06T18:10:45.856Z,18.60
2019-02-06T18:13:15.659Z,20.17
2019-02-06T18:15:44.600Z,21.87
2019-02-06T18:18:14.756Z,23.07
2019-02-06T18:20:44.261Z,22.27
2019-02-06T18:23:13.462Z,21.60
2019-02-06T18:25:43.456Z,25.68
2019-02-06T18:28:12.549Z,33.15
2019-02-06T18:30:41.367Z,25.17
2019-02-06T18:33:10.712Z,24.43
2019-02-06T18:35:40.451Z,22.00
2019-02-06T18:38:09.635Z,18.85
2019-02-06T18:40:42.368Z,30.08
2019-02-06T18:43:11.996Z,30.15
2019-02-06T18:45:41.226Z,31.00
2019-02-06T18:48:10.640Z,23.25
2019-02-06T18:50:40.585Z,24.30
2019-02-06T18:53:09.794Z,15.43
2019-02-06T18:55:39.248Z,24.55
2019-02-06T18:58:09.135Z,20.77
2019-02-06T19:00:38.444Z,22.87
2019-02-06T19:03:14.333Z,20.72
2019-02-06T19:05:43.579Z,25.50
2019-02-06T19:08:12.861Z,23.22
2019-02-06T19:10:42.099Z,23.35
2019-02-06T19:13:11.596Z,25.10
2019-02-06T19:15:40.519Z,16.82
2019-02-06T19:18:11.411Z,26.07
2019-02-06T19:20:40.336Z,22.95
2019-02-06T19:23:09.548Z,21.40
2019-02-06T19:25:38.619Z,29.72
2019-02-06T19:28:07.454Z,26.57
2019-02-06T19:30:38.010Z,23.00
2019-02-06T19:33:07.342Z,19.27
2019-02-06T19:35:36.671Z,19.52
2019-02-06T19:38:06.234Z,19.20
2019-02-06T19:40:35.425Z,24.95
2019-02-06T19:43:04.561Z,31.65
2019-02-06T19:45:33.560Z,23.45
2019-02-06T19:48:03.034Z,21.00
2019-02-06T19:50:34.598Z,27.90
2019-02-06T19:53:03.658Z,24.47
2019-02-06T19:55:32.626Z,25.72
2019-02-06T19:58:01.723Z,22.80
2019-02-06T20:00:31.291Z,34.78
2019-02-06T20:03:00.511Z,27.25
2019-02-06T20:05:29.876Z,23.85
2019-02-06T20:07:58.814Z,25.88
2019-02-06T20:10:33.447Z,27.58
2019-02-06T20:13:10.577Z,28.07
2019-02-06T20:15:35.611Z,24.85
2019-02-06T20:18:05.180Z,27.90
2019-02-06T20:20:34.548Z,15.20
2019-02-06T20:23:03.632Z,29.75
2019-02-06T20:25:32.594Z,33.10
2019-02-06T20:28:01.656Z,26.23
2019-02-06T20:30:31.695Z,35.05
2019-02-06T20:33:00.732Z,27.52
2019-02-06T20:35:30.566Z,25.85
2019-02-06T20:38:01.833Z,22.65
2019-02-06T20:40:32.638Z,27.65
2019-02-06T20:43:01.805Z,23.10
2019-02-06T20:45:31.642Z,30.02
2019-02-06T20:48:00.716Z,31.37
2019-02-06T20:50:32.026Z,24.50
2019-02-06T20:53:01.279Z,24.82
2019-02-06T20:55:30.475Z,27.60
2019-02-06T20:57:59.397Z,26.12
2019-02-06T21:00:38.078Z,37.25
2019-02-06T21:03:07.323Z,22.15
2019-02-06T21:05:36.089Z,26.95
2019-02-06T21:08:06.068Z,27.05
2019-02-06T21:10:35.202Z,35.10
2019-02-06T21:13:04.886Z,26.68
2019-02-06T21:15:33.779Z,34.18
2019-02-06T21:18:03.947Z,32.65
2019-02-06T21:20:32.824Z,33.33
2019-02-06T21:23:02.033Z,27.45
2019-02-06T21:25:30.968Z,33.28
2019-02-06T21:28:00.070Z,29.85
2019-02-06T21:30:33.547Z,23.62
2019-02-06T21:33:02.593Z,27.20
2019-02-06T21:35:31.497Z,21.52
2019-02-06T21:38:00.786Z,27.07
2019-02-06T21:40:31.750Z,29.35
2019-02-06T21:43:00.860Z,27.27
2019-02-06T21:45:29.926Z,35.98
2019-02-06T21:47:59.456Z,32.40
2019-02-06T21:50:28.836Z,25.55
2019-02-06T21:52:58.643Z,22.90
2019-02-06T21:55:27.598Z,30.72
2019-02-06T21:57:56.512Z,30.95
2019-02-06T22:00:27.648Z,28.35
2019-02-06T22:02:56.640Z,30.95
2019-02-06T22:05:26.205Z,23.87
2019-02-06T22:07:55.154Z,30.08
2019-02-06T22:10:24.647Z,30.57
2019-02-06T22:12:53.688Z,27.30
2019-02-06T22:15:25.150Z,38.42
2019-02-06T22:17:54.188Z,23.70
2019-02-06T22:20:23.076Z,23.47
2019-02-06T22:22:52.060Z,25.70
2019-02-06T22:25:21.276Z,32.35
2019-02-06T22:27:50.793Z,32.83
2019-02-06T22:30:24.774Z,29.92
2019-02-06T22:32:53.988Z,29.02
2019-02-06T22:35:23.515Z,38.33
2019-02-06T22:37:52.494Z,34.63
2019-02-06T22:40:22.749Z,30.75
2019-02-06T22:42:51.761Z,33.02
2019-02-06T22:45:22.568Z,28.05
2019-02-06T22:47:51.831Z,34.23
2019-02-06T22:50:24.203Z,35.23
2019-02-06T22:52:53.396Z,36.45
2019-02-06T22:55:22.516Z,32.45
2019-02-06T22:57:51.419Z,29.55
2019-02-06T23:00:52.476Z,30.82
2019-02-06T23:03:30.606Z,28.10
2019-02-06T23:05:59.670Z,38.98
2019-02-06T23:08:29.058Z,27.50
2019-02-06T23:10:58.327Z,38.42
2019-02-06T23:13:27.194Z,17.95
2019-02-06T23:15:56.164Z,35.78
2019-02-06T23:18:25.430Z,22.60
2019-02-06T23:20:54.669Z,24.47
2019-02-06T23:23:23.551Z,37.30
2019-02-06T23:25:52.767Z,34.40
2019-02-06T23:28:21.666Z,28.67
2019-02-06T23:30:50.502Z,37.88
2019-02-06T23:33:19.586Z,24.27
2019-02-06T23:35:48.756Z,35.73
2019-02-06T23:38:17.712Z,33.53
2019-02-06T23:40:46.920Z,40.55
2019-02-06T23:43:16.097Z,43.20
2019-02-06T23:45:45.062Z,41.45
2019-02-06T23:48:14.363Z,30.25
2019-02-06T23:50:43.255Z,35.90
2019-02-06T23:53:12.071Z,29.80
2019-02-06T23:55:41.311Z,28.15
2019-02-06T23:58:10.416Z,24.55
